sensor_id;sensor_type;location;lat;lon;timestamp;temperature;humidity
71668;DHT22;59504;54.806;9.640;2023-04-06T00:00:29;3.50;56.70
71668;DHT22;59504;54.806;9.640;2023-04-06T00:02:30;3.50;56.60
71668;DHT22;59504;54.806;9.640;2023-04-06T00:04:31;3.60;56.60
71668;DHT22;59504;54.806;9.640;2023-04-06T00:06:31;3.50;56.50
71668;DHT22;59504;54.806;9.640;2023-04-06T00:08:32;3.50;56.40
71668;DHT22;59504;54.806;9.640;2023-04-06T00:10:33;3.50;56.30
71668;DHT22;59504;54.806;9.640;2023-04-06T00:12:34;3.50;56.30
71668;DHT22;59504;54.806;9.640;2023-04-06T00:14:34;3.60;56.50
71668;DHT22;59504;54.806;9.640;2023-04-06T00:16:35;3.50;56.40
71668;DHT22;59504;54.806;9.640;2023-04-06T00:18:36;3.60;56.60
71668;DHT22;59504;54.806;9.640;2023-04-06T00:20:37;3.50;56.40
71668;DHT22;59504;54.806;9.640;2023-04-06T00:22:37;3.50;56.80
71668;DHT22;59504;54.806;9.640;2023-04-06T00:24:38;3.50;56.40
71668;DHT22;59504;54.806;9.640;2023-04-06T00:26:39;3.50;56.20
71668;DHT22;59504;54.806;9.640;2023-04-06T00:28:40;3.50;56.90
71668;DHT22;59504;54.806;9.640;2023-04-06T00:30:41;3.50;56.80
71668;DHT22;59504;54.806;9.640;2023-04-06T00:32:41;3.50;56.90
71668;DHT22;59504;54.806;9.640;2023-04-06T00:34:42;3.40;56.80
71668;DHT22;59504;54.806;9.640;2023-04-06T00:36:43;3.50;56.80
71668;DHT22;59504;54.806;9.640;2023-04-06T00:38:43;3.40;56.90
71668;DHT22;59504;54.806;9.640;2023-04-06T00:40:46;3.50;57.40
71668;DHT22;59504;54.806;9.640;2023-04-06T00:42:50;3.50;57.10
71668;DHT22;59504;54.806;9.640;2023-04-06T00:44:59;3.40;57.10
71668;DHT22;59504;54.806;9.640;2023-04-06T00:47:00;3.50;56.90
71668;DHT22;59504;54.806;9.640;2023-04-06T00:49:01;3.50;56.60
71668;DHT22;59504;54.806;9.640;2023-04-06T00:51:02;3.40;57.00
71668;DHT22;59504;54.806;9.640;2023-04-06T00:53:03;3.40;56.70
71668;DHT22;59504;54.806;9.640;2023-04-06T00:55:04;3.40;57.20
71668;DHT22;59504;54.806;9.640;2023-04-06T00:57:04;3.40;57.00
71668;DHT22;59504;54.806;9.640;2023-04-06T00:59:05;3.40;57.00
71668;DHT22;59504;54.806;9.640;2023-04-06T01:01:06;3.50;56.50
71668;DHT22;59504;54.806;9.640;2023-04-06T01:03:07;3.40;56.30
71668;DHT22;59504;54.806;9.640;2023-04-06T01:05:08;3.50;56.70
71668;DHT22;59504;54.806;9.640;2023-04-06T01:07:08;3.40;56.60
71668;DHT22;59504;54.806;9.640;2023-04-06T01:09:09;3.40;56.40
71668;DHT22;59504;54.806;9.640;2023-04-06T01:11:10;3.40;56.50
71668;DHT22;59504;54.806;9.640;2023-04-06T01:13:11;3.40;56.60
71668;DHT22;59504;54.806;9.640;2023-04-06T01:15:11;3.40;56.50
71668;DHT22;59504;54.806;9.640;2023-04-06T01:17:12;3.40;56.30
71668;DHT22;59504;54.806;9.640;2023-04-06T01:19:13;3.40;56.30
71668;DHT22;59504;54.806;9.640;2023-04-06T01:21:14;3.40;56.90
71668;DHT22;59504;54.806;9.640;2023-04-06T01:23:17;3.40;56.20
71668;DHT22;59504;54.806;9.640;2023-04-06T01:25:18;3.40;56.20
71668;DHT22;59504;54.806;9.640;2023-04-06T01:27:18;3.30;56.30
71668;DHT22;59504;54.806;9.640;2023-04-06T01:29:19;3.30;56.40
71668;DHT22;59504;54.806;9.640;2023-04-06T01:31:20;3.40;56.10
71668;DHT22;59504;54.806;9.640;2023-04-06T01:33:20;3.30;56.10
71668;DHT22;59504;54.806;9.640;2023-04-06T01:35:21;3.30;56.10
71668;DHT22;59504;54.806;9.640;2023-04-06T01:37:22;3.30;56.20
71668;DHT22;59504;54.806;9.640;2023-04-06T01:39:22;3.30;56.10
71668;DHT22;59504;54.806;9.640;2023-04-06T01:41:23;3.20;56.00
71668;DHT22;59504;54.806;9.640;2023-04-06T01:43:24;3.30;55.70
71668;DHT22;59504;54.806;9.640;2023-04-06T01:45:24;3.20;55.90
71668;DHT22;59504;54.806;9.640;2023-04-06T01:47:25;3.20;56.20
71668;DHT22;59504;54.806;9.640;2023-04-06T01:49:26;3.20;56.10
71668;DHT22;59504;54.806;9.640;2023-04-06T01:51:26;3.20;55.90
71668;DHT22;59504;54.806;9.640;2023-04-06T01:53:27;3.20;55.80
71668;DHT22;59504;54.806;9.640;2023-04-06T01:55:28;3.10;55.70
71668;DHT22;59504;54.806;9.640;2023-04-06T01:57:28;3.10;55.60
71668;DHT22;59504;54.806;9.640;2023-04-06T01:59:29;3.10;55.60
71668;DHT22;59504;54.806;9.640;2023-04-06T02:01:29;3.00;55.60
71668;DHT22;59504;54.806;9.640;2023-04-06T02:03:30;3.10;55.70
71668;DHT22;59504;54.806;9.640;2023-04-06T02:05:32;3.00;55.70
71668;DHT22;59504;54.806;9.640;2023-04-06T02:07:42;3.00;55.50
71668;DHT22;59504;54.806;9.640;2023-04-06T02:09:42;3.00;55.60
71668;DHT22;59504;54.806;9.640;2023-04-06T02:11:43;3.00;55.80
71668;DHT22;59504;54.806;9.640;2023-04-06T02:13:43;3.00;55.90
71668;DHT22;59504;54.806;9.640;2023-04-06T02:15:45;3.00;55.80
71668;DHT22;59504;54.806;9.640;2023-04-06T02:17:45;3.00;55.70
71668;DHT22;59504;54.806;9.640;2023-04-06T02:19:46;3.00;55.60
71668;DHT22;59504;54.806;9.640;2023-04-06T02:21:47;2.90;55.60
71668;DHT22;59504;54.806;9.640;2023-04-06T02:23:47;2.90;55.60
71668;DHT22;59504;54.806;9.640;2023-04-06T02:25:49;2.80;55.50
71668;DHT22;59504;54.806;9.640;2023-04-06T02:27:50;2.80;55.40
71668;DHT22;59504;54.806;9.640;2023-04-06T02:29:51;2.80;55.30
71668;DHT22;59504;54.806;9.640;2023-04-06T02:31:51;2.70;55.30
71668;DHT22;59504;54.806;9.640;2023-04-06T02:33:52;2.80;55.40
71668;DHT22;59504;54.806;9.640;2023-04-06T02:35:52;2.80;55.30
71668;DHT22;59504;54.806;9.640;2023-04-06T02:37:53;2.70;55.30
71668;DHT22;59504;54.806;9.640;2023-04-06T02:39:54;2.70;55.40
71668;DHT22;59504;54.806;9.640;2023-04-06T02:41:54;2.60;55.30
71668;DHT22;59504;54.806;9.640;2023-04-06T02:44:02;2.60;55.30
71668;DHT22;59504;54.806;9.640;2023-04-06T02:46:03;2.60;55.40
71668;DHT22;59504;54.806;9.640;2023-04-06T02:48:03;2.50;55.40
71668;DHT22;59504;54.806;9.640;2023-04-06T02:50:04;2.50;55.40
71668;DHT22;59504;54.806;9.640;2023-04-06T02:52:05;2.40;55.40
71668;DHT22;59504;54.806;9.640;2023-04-06T02:54:06;2.50;55.50
71668;DHT22;59504;54.806;9.640;2023-04-06T02:56:06;2.50;55.40
71668;DHT22;59504;54.806;9.640;2023-04-06T02:58:07;2.40;55.40
71668;DHT22;59504;54.806;9.640;2023-04-06T03:00:08;2.40;55.60
71668;DHT22;59504;54.806;9.640;2023-04-06T03:02:09;2.30;55.50
71668;DHT22;59504;54.806;9.640;2023-04-06T03:04:10;2.30;55.60
71668;DHT22;59504;54.806;9.640;2023-04-06T03:06:11;2.40;55.60
71668;DHT22;59504;54.806;9.640;2023-04-06T03:08:11;2.30;55.60
71668;DHT22;59504;54.806;9.640;2023-04-06T03:10:12;2.20;55.60
71668;DHT22;59504;54.806;9.640;2023-04-06T03:12:13;2.20;55.60
71668;DHT22;59504;54.806;9.640;2023-04-06T03:14:13;2.20;55.70
71668;DHT22;59504;54.806;9.640;2023-04-06T03:16:14;2.20;55.60
71668;DHT22;59504;54.806;9.640;2023-04-06T03:18:18;2.10;55.70
71668;DHT22;59504;54.806;9.640;2023-04-06T03:20:18;2.20;55.70
71668;DHT22;59504;54.806;9.640;2023-04-06T03:22:19;2.10;55.70
71668;DHT22;59504;54.806;9.640;2023-04-06T03:24:20;2.10;55.70
71668;DHT22;59504;54.806;9.640;2023-04-06T03:26:20;2.00;55.80
71668;DHT22;59504;54.806;9.640;2023-04-06T03:28:22;2.00;55.80
71668;DHT22;59504;54.806;9.640;2023-04-06T03:30:23;2.10;55.90
71668;DHT22;59504;54.806;9.640;2023-04-06T03:32:23;1.90;55.80
71668;DHT22;59504;54.806;9.640;2023-04-06T03:34:24;2.00;55.80
71668;DHT22;59504;54.806;9.640;2023-04-06T03:36:25;2.00;55.80
71668;DHT22;59504;54.806;9.640;2023-04-06T03:38:28;1.90;55.80
71668;DHT22;59504;54.806;9.640;2023-04-06T03:40:28;2.00;55.80
71668;DHT22;59504;54.806;9.640;2023-04-06T03:42:29;1.90;55.80
71668;DHT22;59504;54.806;9.640;2023-04-06T03:44:31;1.80;55.70
71668;DHT22;59504;54.806;9.640;2023-04-06T03:46:32;1.80;55.70
71668;DHT22;59504;54.806;9.640;2023-04-06T03:48:32;1.80;55.70
71668;DHT22;59504;54.806;9.640;2023-04-06T03:50:33;1.80;55.80
71668;DHT22;59504;54.806;9.640;2023-04-06T03:52:34;1.80;55.90
71668;DHT22;59504;54.806;9.640;2023-04-06T03:54:37;1.70;55.80
71668;DHT22;59504;54.806;9.640;2023-04-06T03:56:38;1.70;55.90
71668;DHT22;59504;54.806;9.640;2023-04-06T03:58:38;1.80;56.10
71668;DHT22;59504;54.806;9.640;2023-04-06T04:00:39;1.70;56.10
71668;DHT22;59504;54.806;9.640;2023-04-06T04:02:40;1.70;56.30
71668;DHT22;59504;54.806;9.640;2023-04-06T04:04:40;1.60;56.20
71668;DHT22;59504;54.806;9.640;2023-04-06T04:06:41;1.60;56.10
71668;DHT22;59504;54.806;9.640;2023-04-06T04:08:41;1.60;56.30
71668;DHT22;59504;54.806;9.640;2023-04-06T04:10:42;1.60;56.00
71668;DHT22;59504;54.806;9.640;2023-04-06T04:13:02;1.60;56.00
71668;DHT22;59504;54.806;9.640;2023-04-06T04:15:23;1.50;56.00
71668;DHT22;59504;54.806;9.640;2023-04-06T04:17:44;1.50;56.20
71668;DHT22;59504;54.806;9.640;2023-04-06T04:19:47;1.50;56.50
71668;DHT22;59504;54.806;9.640;2023-04-06T04:21:47;1.50;56.50
71668;DHT22;59504;54.806;9.640;2023-04-06T04:24:08;1.40;56.40
71668;DHT22;59504;54.806;9.640;2023-04-06T04:26:08;1.40;56.30
71668;DHT22;59504;54.806;9.640;2023-04-06T04:28:29;1.40;56.20
71668;DHT22;59504;54.806;9.640;2023-04-06T04:30:50;1.40;56.40
71668;DHT22;59504;54.806;9.640;2023-04-06T04:33:10;1.40;56.50
71668;DHT22;59504;54.806;9.640;2023-04-06T04:35:31;1.30;56.50
71668;DHT22;59504;54.806;9.640;2023-04-06T04:37:51;1.30;56.50
71668;DHT22;59504;54.806;9.640;2023-04-06T04:40:12;1.30;56.70
71668;DHT22;59504;54.806;9.640;2023-04-06T04:42:33;1.30;56.70
71668;DHT22;59504;54.806;9.640;2023-04-06T04:44:53;1.30;56.80
71668;DHT22;59504;54.806;9.640;2023-04-06T04:47:14;1.30;56.80
71668;DHT22;59504;54.806;9.640;2023-04-06T04:49:35;1.20;56.90
71668;DHT22;59504;54.806;9.640;2023-04-06T04:51:55;1.20;56.90
71668;DHT22;59504;54.806;9.640;2023-04-06T04:53:59;1.20;56.80
71668;DHT22;59504;54.806;9.640;2023-04-06T04:56:00;1.20;56.80
71668;DHT22;59504;54.806;9.640;2023-04-06T04:58:00;1.10;56.80
71668;DHT22;59504;54.806;9.640;2023-04-06T05:00:01;1.10;56.90
71668;DHT22;59504;54.806;9.640;2023-04-06T05:02:02;1.10;57.10
71668;DHT22;59504;54.806;9.640;2023-04-06T05:04:03;1.10;57.10
71668;DHT22;59504;54.806;9.640;2023-04-06T05:06:04;1.00;56.90
71668;DHT22;59504;54.806;9.640;2023-04-06T05:08:05;1.00;56.90
71668;DHT22;59504;54.806;9.640;2023-04-06T05:10:06;1.00;56.90
71668;DHT22;59504;54.806;9.640;2023-04-06T05:12:06;1.00;56.90
71668;DHT22;59504;54.806;9.640;2023-04-06T05:14:07;1.00;57.10
71668;DHT22;59504;54.806;9.640;2023-04-06T05:16:08;1.10;57.10
71668;DHT22;59504;54.806;9.640;2023-04-06T05:18:09;1.00;57.10
71668;DHT22;59504;54.806;9.640;2023-04-06T05:20:09;0.90;57.00
71668;DHT22;59504;54.806;9.640;2023-04-06T05:22:10;1.00;57.20
71668;DHT22;59504;54.806;9.640;2023-04-06T05:24:11;1.00;57.30
71668;DHT22;59504;54.806;9.640;2023-04-06T05:26:12;1.00;57.40
71668;DHT22;59504;54.806;9.640;2023-04-06T05:28:12;1.00;57.50
71668;DHT22;59504;54.806;9.640;2023-04-06T05:30:15;1.00;57.80
71668;DHT22;59504;54.806;9.640;2023-04-06T05:32:16;1.00;57.80
71668;DHT22;59504;54.806;9.640;2023-04-06T05:34:17;1.00;58.10
71668;DHT22;59504;54.806;9.640;2023-04-06T05:36:18;1.00;58.50
71668;DHT22;59504;54.806;9.640;2023-04-06T05:38:23;1.10;59.00
71668;DHT22;59504;54.806;9.640;2023-04-06T05:40:24;1.10;59.40
71668;DHT22;59504;54.806;9.640;2023-04-06T05:42:25;1.10;59.20
71668;DHT22;59504;54.806;9.640;2023-04-06T05:44:27;1.10;59.10
71668;DHT22;59504;54.806;9.640;2023-04-06T05:46:27;1.10;58.80
71668;DHT22;59504;54.806;9.640;2023-04-06T05:48:29;1.10;58.90
71668;DHT22;59504;54.806;9.640;2023-04-06T05:50:31;1.10;58.70
71668;DHT22;59504;54.806;9.640;2023-04-06T05:52:52;1.20;58.40
71668;DHT22;59504;54.806;9.640;2023-04-06T05:55:12;1.10;58.40
71668;DHT22;59504;54.806;9.640;2023-04-06T05:57:33;1.10;58.40
71668;DHT22;59504;54.806;9.640;2023-04-06T05:59:53;1.20;58.60
71668;DHT22;59504;54.806;9.640;2023-04-06T06:02:15;1.20;58.80
71668;DHT22;59504;54.806;9.640;2023-04-06T06:04:26;1.20;59.20
71668;DHT22;59504;54.806;9.640;2023-04-06T06:06:27;1.30;59.10
71668;DHT22;59504;54.806;9.640;2023-04-06T06:08:28;1.30;59.30
71668;DHT22;59504;54.806;9.640;2023-04-06T06:10:28;1.50;59.40
71668;DHT22;59504;54.806;9.640;2023-04-06T06:12:29;1.50;59.40
71668;DHT22;59504;54.806;9.640;2023-04-06T06:14:30;1.50;59.30
71668;DHT22;59504;54.806;9.640;2023-04-06T06:16:31;1.60;59.50
71668;DHT22;59504;54.806;9.640;2023-04-06T06:18:31;1.70;59.80
71668;DHT22;59504;54.806;9.640;2023-04-06T06:20:32;1.80;60.20
71668;DHT22;59504;54.806;9.640;2023-04-06T06:22:33;1.90;60.50
71668;DHT22;59504;54.806;9.640;2023-04-06T06:24:33;2.00;60.20
71668;DHT22;59504;54.806;9.640;2023-04-06T06:26:34;2.00;60.40
71668;DHT22;59504;54.806;9.640;2023-04-06T06:28:37;2.10;60.90
71668;DHT22;59504;54.806;9.640;2023-04-06T06:30:37;2.20;60.80
71668;DHT22;59504;54.806;9.640;2023-04-06T06:32:38;2.30;60.60
71668;DHT22;59504;54.806;9.640;2023-04-06T06:34:38;2.30;60.50
71668;DHT22;59504;54.806;9.640;2023-04-06T06:36:39;2.40;60.60
71668;DHT22;59504;54.806;9.640;2023-04-06T06:38:40;2.50;60.50
71668;DHT22;59504;54.806;9.640;2023-04-06T06:40:41;2.60;60.50
71668;DHT22;59504;54.806;9.640;2023-04-06T06:42:41;2.60;60.10
71668;DHT22;59504;54.806;9.640;2023-04-06T06:44:42;2.70;59.90
71668;DHT22;59504;54.806;9.640;2023-04-06T06:46:42;2.80;59.80
71668;DHT22;59504;54.806;9.640;2023-04-06T06:48:43;2.90;60.30
71668;DHT22;59504;54.806;9.640;2023-04-06T06:50:44;3.00;60.30
71668;DHT22;59504;54.806;9.640;2023-04-06T06:52:44;3.10;59.90
71668;DHT22;59504;54.806;9.640;2023-04-06T06:54:45;3.20;60.20
71668;DHT22;59504;54.806;9.640;2023-04-06T06:56:46;3.30;60.30
71668;DHT22;59504;54.806;9.640;2023-04-06T06:58:46;3.40;61.10
71668;DHT22;59504;54.806;9.640;2023-04-06T07:00:47;3.50;61.50
71668;DHT22;59504;54.806;9.640;2023-04-06T07:02:48;3.60;61.10
71668;DHT22;59504;54.806;9.640;2023-04-06T07:04:49;3.70;61.00
71668;DHT22;59504;54.806;9.640;2023-04-06T07:06:50;3.90;60.50
71668;DHT22;59504;54.806;9.640;2023-04-06T07:08:51;4.00;60.50
71668;DHT22;59504;54.806;9.640;2023-04-06T07:10:52;4.00;60.40
71668;DHT22;59504;54.806;9.640;2023-04-06T07:12:52;4.20;60.60
71668;DHT22;59504;54.806;9.640;2023-04-06T07:14:53;4.30;60.90
71668;DHT22;59504;54.806;9.640;2023-04-06T07:16:54;4.40;61.00
71668;DHT22;59504;54.806;9.640;2023-04-06T07:18:54;4.50;60.90
71668;DHT22;59504;54.806;9.640;2023-04-06T07:20:58;4.60;60.70
71668;DHT22;59504;54.806;9.640;2023-04-06T07:23:08;4.70;60.60
71668;DHT22;59504;54.806;9.640;2023-04-06T07:25:08;4.80;60.50
71668;DHT22;59504;54.806;9.640;2023-04-06T07:27:10;5.00;61.10
71668;DHT22;59504;54.806;9.640;2023-04-06T07:29:10;5.10;60.70
71668;DHT22;59504;54.806;9.640;2023-04-06T07:31:11;5.20;60.70
71668;DHT22;59504;54.806;9.640;2023-04-06T07:33:12;5.30;60.40
71668;DHT22;59504;54.806;9.640;2023-04-06T07:35:12;5.40;60.20
71668;DHT22;59504;54.806;9.640;2023-04-06T07:37:13;5.50;60.50
71668;DHT22;59504;54.806;9.640;2023-04-06T07:39:14;5.60;60.30
71668;DHT22;59504;54.806;9.640;2023-04-06T07:41:35;5.70;60.10
71668;DHT22;59504;54.806;9.640;2023-04-06T07:43:58;5.80;60.40
71668;DHT22;59504;54.806;9.640;2023-04-06T07:46:18;6.00;60.20
71668;DHT22;59504;54.806;9.640;2023-04-06T07:48:39;6.00;60.20
71668;DHT22;59504;54.806;9.640;2023-04-06T07:51:00;6.10;59.90
71668;DHT22;59504;54.806;9.640;2023-04-06T07:53:21;6.20;59.40
71668;DHT22;59504;54.806;9.640;2023-04-06T07:55:45;6.40;60.00
71668;DHT22;59504;54.806;9.640;2023-04-06T07:58:06;6.50;59.00
71668;DHT22;59504;54.806;9.640;2023-04-06T08:00:27;6.60;58.70
71668;DHT22;59504;54.806;9.640;2023-04-06T08:02:47;6.60;58.70
71668;DHT22;59504;54.806;9.640;2023-04-06T08:05:08;6.70;58.40
71668;DHT22;59504;54.806;9.640;2023-04-06T08:07:20;6.80;58.20
71668;DHT22;59504;54.806;9.640;2023-04-06T08:09:20;6.90;58.20
71668;DHT22;59504;54.806;9.640;2023-04-06T08:11:21;7.00;58.10
71668;DHT22;59504;54.806;9.640;2023-04-06T08:13:21;7.10;58.10
71668;DHT22;59504;54.806;9.640;2023-04-06T08:15:22;7.10;57.60
71668;DHT22;59504;54.806;9.640;2023-04-06T08:17:23;7.20;57.40
71668;DHT22;59504;54.806;9.640;2023-04-06T08:19:24;7.30;57.40
71668;DHT22;59504;54.806;9.640;2023-04-06T08:21:24;7.30;57.30
71668;DHT22;59504;54.806;9.640;2023-04-06T08:23:25;7.40;57.30
71668;DHT22;59504;54.806;9.640;2023-04-06T08:25:29;7.40;57.10
71668;DHT22;59504;54.806;9.640;2023-04-06T08:27:31;7.50;56.80
71668;DHT22;59504;54.806;9.640;2023-04-06T08:29:33;7.60;56.60
71668;DHT22;59504;54.806;9.640;2023-04-06T08:31:40;7.70;56.60
71668;DHT22;59504;54.806;9.640;2023-04-06T08:33:40;7.70;56.40
71668;DHT22;59504;54.806;9.640;2023-04-06T08:35:41;7.80;56.40
71668;DHT22;59504;54.806;9.640;2023-04-06T08:37:42;7.80;56.20
71668;DHT22;59504;54.806;9.640;2023-04-06T08:39:42;7.90;56.80
71668;DHT22;59504;54.806;9.640;2023-04-06T08:41:43;7.90;56.00
71668;DHT22;59504;54.806;9.640;2023-04-06T08:43:57;8.00;55.90
71668;DHT22;59504;54.806;9.640;2023-04-06T08:45:58;8.10;55.60
71668;DHT22;59504;54.806;9.640;2023-04-06T08:47:59;8.20;55.20
71668;DHT22;59504;54.806;9.640;2023-04-06T08:50:05;8.20;55.20
71668;DHT22;59504;54.806;9.640;2023-04-06T08:52:06;8.30;55.00
71668;DHT22;59504;54.806;9.640;2023-04-06T08:54:08;8.40;55.10
71668;DHT22;59504;54.806;9.640;2023-04-06T08:56:09;8.40;55.10
71668;DHT22;59504;54.806;9.640;2023-04-06T08:58:10;8.40;54.90
71668;DHT22;59504;54.806;9.640;2023-04-06T09:00:11;8.60;54.80
71668;DHT22;59504;54.806;9.640;2023-04-06T09:02:13;8.60;55.00
71668;DHT22;59504;54.806;9.640;2023-04-06T09:04:17;8.70;54.60
71668;DHT22;59504;54.806;9.640;2023-04-06T09:06:17;8.70;53.30
71668;DHT22;59504;54.806;9.640;2023-04-06T09:08:18;8.90;53.80
71668;DHT22;59504;54.806;9.640;2023-04-06T09:10:19;8.90;52.60
71668;DHT22;59504;54.806;9.640;2023-04-06T09:12:24;8.90;53.10
71668;DHT22;59504;54.806;9.640;2023-04-06T09:14:37;9.00;53.10
71668;DHT22;59504;54.806;9.640;2023-04-06T09:16:41;9.00;51.90
71668;DHT22;59504;54.806;9.640;2023-04-06T09:18:42;9.10;52.20
71668;DHT22;59504;54.806;9.640;2023-04-06T09:20:43;9.20;52.80
71668;DHT22;59504;54.806;9.640;2023-04-06T09:22:43;9.20;52.10
71668;DHT22;59504;54.806;9.640;2023-04-06T09:24:45;9.30;51.90
71668;DHT22;59504;54.806;9.640;2023-04-06T09:26:46;9.30;50.70
71668;DHT22;59504;54.806;9.640;2023-04-06T09:28:48;9.40;51.60
71668;DHT22;59504;54.806;9.640;2023-04-06T09:30:49;9.40;51.70
71668;DHT22;59504;54.806;9.640;2023-04-06T09:32:52;9.50;51.30
71668;DHT22;59504;54.806;9.640;2023-04-06T09:34:53;9.50;51.30
71668;DHT22;59504;54.806;9.640;2023-04-06T09:36:54;9.60;51.70
71668;DHT22;59504;54.806;9.640;2023-04-06T09:38:57;9.60;51.60
71668;DHT22;59504;54.806;9.640;2023-04-06T09:41:31;9.60;51.40
71668;DHT22;59504;54.806;9.640;2023-04-06T09:43:39;9.70;51.50
71668;DHT22;59504;54.806;9.640;2023-04-06T09:46:00;9.80;51.10
71668;DHT22;59504;54.806;9.640;2023-04-06T09:48:21;9.80;51.00
71668;DHT22;59504;54.806;9.640;2023-04-06T09:50:42;9.90;49.50
71668;DHT22;59504;54.806;9.640;2023-04-06T09:53:02;9.90;50.30
71668;DHT22;59504;54.806;9.640;2023-04-06T09:55:30;10.00;50.50
71668;DHT22;59504;54.806;9.640;2023-04-06T09:58:07;10.00;50.20
71668;DHT22;59504;54.806;9.640;2023-04-06T10:00:29;10.10;50.40
71668;DHT22;59504;54.806;9.640;2023-04-06T10:05:16;10.10;47.40
71668;DHT22;59504;54.806;9.640;2023-04-06T10:07:40;10.20;48.10
71668;DHT22;59504;54.806;9.640;2023-04-06T10:10:00;10.20;48.30
71668;DHT22;59504;54.806;9.640;2023-04-06T10:12:22;10.20;47.60
71668;DHT22;59504;54.806;9.640;2023-04-06T10:14:23;10.20;47.50
71668;DHT22;59504;54.806;9.640;2023-04-06T10:16:24;10.20;48.30
71668;DHT22;59504;54.806;9.640;2023-04-06T10:18:25;10.30;48.90
71668;DHT22;59504;54.806;9.640;2023-04-06T10:20:28;10.30;48.80
71668;DHT22;59504;54.806;9.640;2023-04-06T10:22:32;10.30;49.30
71668;DHT22;59504;54.806;9.640;2023-04-06T10:24:35;10.40;48.70
71668;DHT22;59504;54.806;9.640;2023-04-06T10:26:36;10.40;48.70
71668;DHT22;59504;54.806;9.640;2023-04-06T10:28:40;10.40;48.70
71668;DHT22;59504;54.806;9.640;2023-04-06T10:30:41;10.50;49.00
71668;DHT22;59504;54.806;9.640;2023-04-06T10:32:42;10.50;48.80
71668;DHT22;59504;54.806;9.640;2023-04-06T10:34:43;10.50;48.50
71668;DHT22;59504;54.806;9.640;2023-04-06T10:36:43;10.60;48.10
71668;DHT22;59504;54.806;9.640;2023-04-06T10:38:44;10.60;48.60
71668;DHT22;59504;54.806;9.640;2023-04-06T10:40:45;10.50;47.60
71668;DHT22;59504;54.806;9.640;2023-04-06T10:42:49;10.50;46.80
71668;DHT22;59504;54.806;9.640;2023-04-06T10:44:50;10.40;46.50
71668;DHT22;59504;54.806;9.640;2023-04-06T10:46:57;10.40;47.30
71668;DHT22;59504;54.806;9.640;2023-04-06T10:48:57;10.50;47.80
71668;DHT22;59504;54.806;9.640;2023-04-06T10:50:58;10.50;47.60
71668;DHT22;59504;54.806;9.640;2023-04-06T10:53:00;10.50;48.30
71668;DHT22;59504;54.806;9.640;2023-04-06T10:55:01;10.50;48.40
71668;DHT22;59504;54.806;9.640;2023-04-06T10:57:02;10.50;48.30
71668;DHT22;59504;54.806;9.640;2023-04-06T10:59:03;10.50;48.20
71668;DHT22;59504;54.806;9.640;2023-04-06T11:01:03;10.50;48.40
71668;DHT22;59504;54.806;9.640;2023-04-06T11:03:04;10.50;48.90
71668;DHT22;59504;54.806;9.640;2023-04-06T11:05:05;10.50;49.00
71668;DHT22;59504;54.806;9.640;2023-04-06T11:07:06;10.40;49.00
71668;DHT22;59504;54.806;9.640;2023-04-06T11:09:06;10.50;49.30
71668;DHT22;59504;54.806;9.640;2023-04-06T11:11:10;10.40;48.90
71668;DHT22;59504;54.806;9.640;2023-04-06T11:13:10;10.20;48.80
71668;DHT22;59504;54.806;9.640;2023-04-06T11:15:11;10.00;49.60
71668;DHT22;59504;54.806;9.640;2023-04-06T11:17:12;10.00;50.10
71668;DHT22;59504;54.806;9.640;2023-04-06T11:19:12;9.90;49.60
71668;DHT22;59504;54.806;9.640;2023-04-06T11:21:13;9.90;49.70
71668;DHT22;59504;54.806;9.640;2023-04-06T11:23:21;9.90;50.90
71668;DHT22;59504;54.806;9.640;2023-04-06T11:25:22;9.80;50.50
71668;DHT22;59504;54.806;9.640;2023-04-06T11:27:22;9.80;50.60
71668;DHT22;59504;54.806;9.640;2023-04-06T11:29:24;9.80;50.50
71668;DHT22;59504;54.806;9.640;2023-04-06T11:31:26;9.90;50.60
71668;DHT22;59504;54.806;9.640;2023-04-06T11:33:27;9.80;49.70
71668;DHT22;59504;54.806;9.640;2023-04-06T11:35:28;9.70;49.60
71668;DHT22;59504;54.806;9.640;2023-04-06T11:37:31;9.80;49.50
71668;DHT22;59504;54.806;9.640;2023-04-06T11:39:37;9.80;50.40
71668;DHT22;59504;54.806;9.640;2023-04-06T11:41:38;9.90;49.20
71668;DHT22;59504;54.806;9.640;2023-04-06T11:43:38;9.90;49.20
71668;DHT22;59504;54.806;9.640;2023-04-06T11:45:46;9.90;49.90
71668;DHT22;59504;54.806;9.640;2023-04-06T11:47:54;10.00;49.50
71668;DHT22;59504;54.806;9.640;2023-04-06T11:49:56;10.00;49.60
71668;DHT22;59504;54.806;9.640;2023-04-06T11:52:00;10.00;49.00
71668;DHT22;59504;54.806;9.640;2023-04-06T11:54:01;10.10;49.30
71668;DHT22;59504;54.806;9.640;2023-04-06T11:56:01;10.00;49.20
71668;DHT22;59504;54.806;9.640;2023-04-06T11:58:02;10.00;50.00
71668;DHT22;59504;54.806;9.640;2023-04-06T12:00:03;10.00;49.50
71668;DHT22;59504;54.806;9.640;2023-04-06T12:02:24;10.00;50.00
71668;DHT22;59504;54.806;9.640;2023-04-06T12:04:25;9.90;50.60
71668;DHT22;59504;54.806;9.640;2023-04-06T12:06:46;9.90;51.30
71668;DHT22;59504;54.806;9.640;2023-04-06T12:09:07;10.00;51.60
71668;DHT22;59504;54.806;9.640;2023-04-06T12:11:27;10.10;50.80
71668;DHT22;59504;54.806;9.640;2023-04-06T12:13:48;10.10;50.00
71668;DHT22;59504;54.806;9.640;2023-04-06T12:16:09;10.10;49.80
71668;DHT22;59504;54.806;9.640;2023-04-06T12:18:35;10.00;47.20
71668;DHT22;59504;54.806;9.640;2023-04-06T12:20:59;10.10;48.20
71668;DHT22;59504;54.806;9.640;2023-04-06T12:23:12;10.20;48.60
71668;DHT22;59504;54.806;9.640;2023-04-06T12:25:12;10.10;48.50
71668;DHT22;59504;54.806;9.640;2023-04-06T12:27:13;10.00;47.40
71668;DHT22;59504;54.806;9.640;2023-04-06T12:29:14;9.90;49.30
71668;DHT22;59504;54.806;9.640;2023-04-06T12:31:15;9.90;49.80
71668;DHT22;59504;54.806;9.640;2023-04-06T12:33:16;9.90;50.30
71668;DHT22;59504;54.806;9.640;2023-04-06T12:35:27;9.90;50.60
71668;DHT22;59504;54.806;9.640;2023-04-06T12:37:28;9.90;49.80
71668;DHT22;59504;54.806;9.640;2023-04-06T12:39:29;9.70;49.70
71668;DHT22;59504;54.806;9.640;2023-04-06T12:41:30;9.60;50.20
71668;DHT22;59504;54.806;9.640;2023-04-06T12:43:31;9.40;49.90
71668;DHT22;59504;54.806;9.640;2023-04-06T12:45:31;9.50;50.40
71668;DHT22;59504;54.806;9.640;2023-04-06T12:47:32;9.30;49.50
71668;DHT22;59504;54.806;9.640;2023-04-06T12:49:33;9.30;50.00
71668;DHT22;59504;54.806;9.640;2023-04-06T12:51:33;9.30;50.00
71668;DHT22;59504;54.806;9.640;2023-04-06T12:53:34;9.40;50.80
71668;DHT22;59504;54.806;9.640;2023-04-06T12:55:35;9.20;50.20
71668;DHT22;59504;54.806;9.640;2023-04-06T12:57:55;9.20;50.00
71668;DHT22;59504;54.806;9.640;2023-04-06T13:00:16;9.10;49.50
71668;DHT22;59504;54.806;9.640;2023-04-06T13:02:37;9.10;50.20
71668;DHT22;59504;54.806;9.640;2023-04-06T13:04:57;8.90;50.10
71668;DHT22;59504;54.806;9.640;2023-04-06T13:07:21;8.90;49.80
71668;DHT22;59504;54.806;9.640;2023-04-06T13:09:41;8.80;49.40
71668;DHT22;59504;54.806;9.640;2023-04-06T13:12:02;8.60;48.70
71668;DHT22;59504;54.806;9.640;2023-04-06T13:14:06;8.60;49.80
71668;DHT22;59504;54.806;9.640;2023-04-06T13:16:09;8.70;49.70
71668;DHT22;59504;54.806;9.640;2023-04-06T13:18:10;8.50;50.10
71668;DHT22;59504;54.806;9.640;2023-04-06T13:20:11;8.50;50.20